createdAt,value
2022-08-12T00:00:36.347Z,58.50
2022-08-12T00:03:22.471Z,59.42
2022-08-12T00:06:09.768Z,54.57
2022-08-12T00:08:57.671Z,55.95
2022-08-12T00:11:45.794Z,55.49
2022-08-12T00:14:32.923Z,54.09
2022-08-12T00:17:19.526Z,54.07
2022-08-12T00:20:05.628Z,55.13
2022-08-12T00:22:55.255Z,57.79
2022-08-12T00:26:23.184Z,55.76
2022-08-12T00:29:13.863Z,57.31
2022-08-12T00:32:01.426Z,55.60
2022-08-12T00:34:51.936Z,57.03
2022-08-12T00:37:43.227Z,53.79
2022-08-12T00:40:31.750Z,55.93
2022-08-12T00:43:00.134Z,55.25
2022-08-12T00:45:47.803Z,53.52
2022-08-12T00:48:16.071Z,56.44
2022-08-12T00:50:45.616Z,55.13
2022-08-12T00:53:13.715Z,54.96
2022-08-12T00:55:46.822Z,55.36
2022-08-12T00:58:23.616Z,57.25
2022-08-12T01:00:52.209Z,57.24
2022-08-12T01:03:20.857Z,57.62
2022-08-12T01:06:11.561Z,60.04
2022-08-12T01:08:58.508Z,60.19
2022-08-12T01:11:29.551Z,63.18
2022-08-12T01:14:01.758Z,60.01
2022-08-12T01:16:29.266Z,61.89
2022-08-12T01:18:58.325Z,58.29
2022-08-12T01:21:28.328Z,59.45
2022-08-12T01:24:44.013Z,58.43
2022-08-12T01:27:14.543Z,58.27
2022-08-12T01:29:47.287Z,58.14
2022-08-12T01:32:19.002Z,58.64
2022-08-12T01:35:08.635Z,57.82
2022-08-12T01:37:57.296Z,59.56
2022-08-12T01:40:34.843Z,57.71
2022-08-12T01:43:15.869Z,59.58
2022-08-12T01:46:27.025Z,59.11
2022-08-12T01:49:09.096Z,60.09
2022-08-12T01:52:15.000Z,60.25
2022-08-12T01:54:44.536Z,58.43
2022-08-12T01:57:58.084Z,57.88
2022-08-12T02:00:20.589Z,59.98
2022-08-12T02:03:17.382Z,57.25
2022-08-12T02:06:20.498Z,59.78
2022-08-12T02:09:14.685Z,60.28
2022-08-12T02:12:27.667Z,59.67
2022-08-12T02:15:13.643Z,62.78
2022-08-12T02:18:12.327Z,61.00
2022-08-12T02:21:05.632Z,64.14
2022-08-12T02:23:36.631Z,63.56
2022-08-12T02:26:09.779Z,61.50
2022-08-12T02:28:40.172Z,66.13
2022-08-12T02:31:09.060Z,60.74
2022-08-12T02:33:37.999Z,63.70
2022-08-12T02:36:05.975Z,62.74
2022-08-12T02:38:34.172Z,63.24
2022-08-12T02:41:05.175Z,60.43
2022-08-12T02:43:51.428Z,61.48
2022-08-12T02:46:27.973Z,59.54
2022-08-12T02:49:21.769Z,58.56
2022-08-12T02:51:49.033Z,60.01
2022-08-12T02:54:16.277Z,62.24
2022-08-12T02:56:50.301Z,63.47
2022-08-12T02:59:22.442Z,62.25
2022-08-12T03:01:53.404Z,61.60
2022-08-12T03:04:50.568Z,60.28
2022-08-12T03:07:33.553Z,58.35
2022-08-12T03:10:17.746Z,63.48
2022-08-12T03:12:49.884Z,62.28
2022-08-12T03:15:23.921Z,61.11
2022-08-12T03:18:24.101Z,58.96
2022-08-12T03:20:46.213Z,61.99
2022-08-12T03:23:23.157Z,58.73
2022-08-12T03:25:59.021Z,61.32
2022-08-12T03:28:47.595Z,63.59
2022-08-12T03:31:14.755Z,61.69
2022-08-12T03:34:00.628Z,59.77
2022-08-12T03:36:35.994Z,58.56
2022-08-12T03:39:35.338Z,61.51
2022-08-12T03:42:25.848Z,63.51
2022-08-12T03:45:29.128Z,64.12
2022-08-12T03:48:34.427Z,63.09
2022-08-12T03:51:21.641Z,64.44
2022-08-12T03:54:11.056Z,63.85
2022-08-12T03:56:58.309Z,62.31
2022-08-12T03:59:44.209Z,60.83
2022-08-12T04:02:17.941Z,60.93
2022-08-12T04:04:46.445Z,59.61
2022-08-12T04:07:14.844Z,62.81
2022-08-12T04:09:45.515Z,64.35
2022-08-12T04:12:33.217Z,64.15
2022-08-12T04:15:01.872Z,63.80
2022-08-12T04:17:29.314Z,63.58
2022-08-12T04:19:58.562Z,65.43
2022-08-12T04:22:29.687Z,63.03
2022-08-12T04:25:01.695Z,65.21
2022-08-12T04:27:32.602Z,65.93
2022-08-12T04:30:29.549Z,63.32
2022-08-12T04:32:51.077Z,62.99
2022-08-12T04:35:20.206Z,61.86
2022-08-12T04:37:58.362Z,64.90
2022-08-12T04:40:30.803Z,63.75
2022-08-12T04:43:01.095Z,61.35
2022-08-12T04:45:29.217Z,61.07
2022-08-12T04:47:57.054Z,60.72
2022-08-12T04:50:33.889Z,61.69
2022-08-12T04:53:08.527Z,61.11
2022-08-12T04:55:38.497Z,65.06
2022-08-12T04:58:09.169Z,64.61
2022-08-12T05:00:37.990Z,60.33
2022-08-12T05:03:07.353Z,56.54
2022-08-12T05:05:37.383Z,58.57
2022-08-12T05:08:10.142Z,53.22
2022-08-12T05:10:37.240Z,50.38
2022-08-12T05:13:09.277Z,49.60
2022-08-12T05:16:03.818Z,47.91
2022-08-12T05:18:29.009Z,44.91
2022-08-12T05:20:59.174Z,43.91
2022-08-12T05:23:26.953Z,41.79
2022-08-12T05:25:57.208Z,40.79
2022-08-12T05:28:27.175Z,38.45
2022-08-12T05:30:56.618Z,38.36
2022-08-12T05:33:35.648Z,39.40
2022-08-12T05:36:03.887Z,39.12
2022-08-12T05:38:49.218Z,38.77
2022-08-12T05:41:37.964Z,38.04
2022-08-12T05:44:13.596Z,37.07
2022-08-12T05:46:41.209Z,39.87
2022-08-12T05:49:09.172Z,38.55
2022-08-12T05:51:39.789Z,34.75
2022-08-12T05:54:08.001Z,34.66
2022-08-12T05:56:36.238Z,35.65
2022-08-12T05:59:09.350Z,36.12
2022-08-12T06:02:11.956Z,38.59
2022-08-12T06:04:23.956Z,37.74
2022-08-12T06:06:53.659Z,36.95
2022-08-12T06:09:22.550Z,44.46
2022-08-12T06:12:05.496Z,42.21
2022-08-12T06:14:38.781Z,46.24
2022-08-12T06:17:09.086Z,44.47
2022-08-12T06:20:26.335Z,43.27
2022-08-12T06:22:26.847Z,44.09
2022-08-12T06:24:54.100Z,44.73
2022-08-12T06:27:21.766Z,43.96
2022-08-12T06:30:07.196Z,43.84
2022-08-12T06:32:42.712Z,47.30
2022-08-12T06:35:23.479Z,46.04
2022-08-12T06:37:58.496Z,44.93
2022-08-12T06:40:44.539Z,44.93
2022-08-12T06:43:13.452Z,46.80
2022-08-12T06:45:49.514Z,46.25
2022-08-12T06:48:17.317Z,45.79
2022-08-12T06:50:45.300Z,44.37
2022-08-12T06:53:12.666Z,44.85
2022-08-12T06:55:58.219Z,47.12
2022-08-12T06:58:28.271Z,48.07
2022-08-12T07:00:57.795Z,47.10
2022-08-12T07:03:29.672Z,46.30
2022-08-12T07:06:00.420Z,45.31
2022-08-12T07:08:35.720Z,44.35
2022-08-12T07:11:07.296Z,44.58
2022-08-12T07:14:11.682Z,45.56
2022-08-12T07:16:52.308Z,44.67
2022-08-12T07:19:20.785Z,44.66
2022-08-12T07:22:00.316Z,44.25
2022-08-12T07:24:30.636Z,45.19
2022-08-12T07:26:58.333Z,44.46
2022-08-12T07:29:58.082Z,44.86
2022-08-12T07:32:16.010Z,45.64
2022-08-12T07:34:43.486Z,43.92
2022-08-12T07:37:10.547Z,42.90
2022-08-12T07:39:49.956Z,42.80
2022-08-12T07:42:19.013Z,41.99
2022-08-12T07:44:47.204Z,42.67
2022-08-12T07:47:19.047Z,43.74
2022-08-12T07:50:03.513Z,42.39
2022-08-12T07:52:34.458Z,42.76
2022-08-12T07:55:02.921Z,42.07
2022-08-12T07:57:32.738Z,42.33
2022-08-12T08:00:04.616Z,41.06
2022-08-12T08:02:36.170Z,40.73
2022-08-12T08:05:05.007Z,40.06
2022-08-12T08:07:32.043Z,40.55
2022-08-12T08:10:00.818Z,40.02
2022-08-12T08:12:48.506Z,39.84
2022-08-12T08:15:16.547Z,39.45
2022-08-12T08:18:02.816Z,39.51
2022-08-12T08:20:41.177Z,39.76
2022-08-12T08:23:19.341Z,38.89
2022-08-12T08:25:46.578Z,38.35
2022-08-12T08:28:20.457Z,38.76
2022-08-12T08:30:47.816Z,37.37
2022-08-12T08:33:24.375Z,36.99
2022-08-12T08:36:07.602Z,36.57
2022-08-12T08:38:57.762Z,37.34
2022-08-12T08:42:15.210Z,37.43
2022-08-12T08:44:39.632Z,37.29
2022-08-12T08:47:11.069Z,36.18
2022-08-12T08:49:39.524Z,36.31
2022-08-12T08:52:09.163Z,35.71
2022-08-12T08:54:38.737Z,36.21
2022-08-12T08:57:08.766Z,35.59
2022-08-12T08:59:36.112Z,35.23
2022-08-12T09:02:04.157Z,35.65
2022-08-12T09:05:14.398Z,35.78
2022-08-12T09:16:03.308Z,34.12
2022-08-12T09:18:33.614Z,35.19
2022-08-12T09:21:02.025Z,34.72
2022-08-12T09:23:58.431Z,34.23
2022-08-12T09:26:19.254Z,32.92
2022-08-12T09:28:52.919Z,32.55
2022-08-12T09:32:07.773Z,32.73
2022-08-12T09:34:25.591Z,32.68
2022-08-12T09:37:02.478Z,32.46
2022-08-12T09:40:04.494Z,32.15
2022-08-12T09:42:43.598Z,31.57
2022-08-12T09:46:11.745Z,31.61
2022-08-12T09:48:19.741Z,32.29
2022-08-12T09:50:51.864Z,33.85
2022-08-12T09:53:29.451Z,33.17
2022-08-12T09:56:56.941Z,33.29
2022-08-12T09:58:59.931Z,31.20
2022-08-12T10:01:35.481Z,30.83
2022-08-12T10:04:19.674Z,31.49
2022-08-12T10:06:54.915Z,31.59
2022-08-12T10:09:57.458Z,31.26
2022-08-12T10:12:31.429Z,31.77
2022-08-12T10:15:02.293Z,32.20
2022-08-12T10:17:29.811Z,31.99
2022-08-12T10:19:59.375Z,32.71
2022-08-12T10:22:49.214Z,31.93
2022-08-12T10:26:34.268Z,32.63
2022-08-12T10:28:39.057Z,32.39
2022-08-12T10:31:15.989Z,33.01
2022-08-12T10:34:05.323Z,31.55
2022-08-12T10:36:40.462Z,31.94
2022-08-12T10:40:01.271Z,32.11
2022-08-12T10:42:33.325Z,32.98
2022-08-12T10:45:09.912Z,31.38
2022-08-12T10:48:07.145Z,31.83
2022-08-12T10:51:01.185Z,32.24
2022-08-12T10:53:21.287Z,32.08
2022-08-12T10:56:08.664Z,30.24
2022-08-12T10:58:36.796Z,30.42
2022-08-12T11:01:49.139Z,30.23
2022-08-12T11:04:35.517Z,29.86
2022-08-12T11:07:06.998Z,30.38
2022-08-12T11:09:55.582Z,29.65
2022-08-12T11:12:55.938Z,29.30
2022-08-12T11:15:19.332Z,29.50
2022-08-12T11:17:52.516Z,29.38
2022-08-12T11:20:24.442Z,29.15
2022-08-12T11:23:25.799Z,29.59
2022-08-12T11:25:57.901Z,28.33
2022-08-12T11:28:34.562Z,28.43
2022-08-12T11:31:11.990Z,29.42
2022-08-12T11:34:04.454Z,29.28
2022-08-12T11:36:29.316Z,29.44
2022-08-12T11:39:01.328Z,30.00
2022-08-12T11:41:34.643Z,28.73
2022-08-12T11:44:37.100Z,29.04
2022-08-12T11:46:53.277Z,29.08
2022-08-12T11:49:31.115Z,27.67
2022-08-12T11:52:04.366Z,27.46
2022-08-12T11:54:50.828Z,28.32
2022-08-12T11:58:17.241Z,29.22
2022-08-12T12:02:53.867Z,28.04
2022-08-12T12:05:21.164Z,28.58
2022-08-12T12:08:37.368Z,29.14
2022-08-12T12:10:42.959Z,29.08
2022-08-12T12:13:11.617Z,28.24
2022-08-12T12:15:50.562Z,28.63
2022-08-12T12:18:32.486Z,28.62
2022-08-12T12:21:08.392Z,28.46
2022-08-12T12:23:36.559Z,29.34
2022-08-12T12:26:07.991Z,25.97
2022-08-12T12:28:38.153Z,26.01
2022-08-12T12:31:14.793Z,27.67
2022-08-12T12:33:57.783Z,28.02
2022-08-12T12:36:29.990Z,27.82
2022-08-12T12:38:58.498Z,26.00
2022-08-12T12:41:37.135Z,27.33
2022-08-12T12:44:30.095Z,24.09
2022-08-12T12:47:02.604Z,23.19
2022-08-12T12:49:29.690Z,23.68
2022-08-12T12:52:18.401Z,23.00
2022-08-12T12:54:52.595Z,23.62
2022-08-12T12:57:35.848Z,23.00
2022-08-12T13:00:15.290Z,22.67
2022-08-12T13:02:57.633Z,23.18
2022-08-12T13:05:42.084Z,23.10
2022-08-12T13:08:35.824Z,23.34
2022-08-12T13:11:05.706Z,22.82
2022-08-12T13:14:07.756Z,23.03
2022-08-12T13:16:29.445Z,23.15
2022-08-12T13:18:57.352Z,23.38
2022-08-12T13:21:36.417Z,23.55
2022-08-12T13:24:07.683Z,22.71
2022-08-12T13:26:40.327Z,23.45
2022-08-12T13:29:11.348Z,23.44
2022-08-12T13:31:46.554Z,23.12
2022-08-12T13:34:34.821Z,22.88
2022-08-12T13:37:09.998Z,23.23
2022-08-12T13:39:40.308Z,22.79
2022-08-12T13:42:14.483Z,22.99
2022-08-12T13:44:43.169Z,22.80
2022-08-12T13:47:18.525Z,23.13
2022-08-12T13:49:55.315Z,22.83
2022-08-12T13:52:24.034Z,23.03
2022-08-12T13:54:56.110Z,22.84
2022-08-12T13:57:25.550Z,23.25
2022-08-12T13:59:55.155Z,23.51
2022-08-12T14:02:24.341Z,23.12
2022-08-12T14:04:56.202Z,22.83
2022-08-12T14:07:25.891Z,23.11
2022-08-12T14:10:16.331Z,22.43
2022-08-12T14:12:54.621Z,22.51
2022-08-12T14:15:37.072Z,22.21
2022-08-12T14:18:26.393Z,21.82
2022-08-12T14:21:04.285Z,23.20
2022-08-12T14:24:05.857Z,22.20
2022-08-12T14:26:27.625Z,22.21
2022-08-12T14:28:57.882Z,22.29
2022-08-12T14:31:29.824Z,22.45
2022-08-12T14:33:59.965Z,21.86
2022-08-12T14:36:26.988Z,22.21
2022-08-12T14:38:55.147Z,22.51
2022-08-12T14:41:36.916Z,22.86
2022-08-12T14:44:59.554Z,23.12
2022-08-12T14:47:01.176Z,22.73
2022-08-12T14:50:33.541Z,22.40
2022-08-12T14:53:13.391Z,22.43
2022-08-12T14:58:02.547Z,23.00
2022-08-12T15:00:52.326Z,22.38
2022-08-12T15:03:52.274Z,22.34
2022-08-12T15:06:44.044Z,22.50
2022-08-12T15:09:06.508Z,22.60
2022-08-12T15:11:54.739Z,22.68
2022-08-12T15:14:27.479Z,22.91
2022-08-12T15:17:00.133Z,22.93
2022-08-12T15:20:12.169Z,23.24
2022-08-12T15:22:36.763Z,22.76
2022-08-12T15:25:08.046Z,22.81
2022-08-12T15:28:04.522Z,23.13
2022-08-12T15:30:31.808Z,22.78
2022-08-12T15:32:59.417Z,21.98
2022-08-12T15:35:31.418Z,22.68
2022-08-12T15:38:13.711Z,22.97
2022-08-12T15:40:48.235Z,23.12
2022-08-12T15:43:35.606Z,23.05
2022-08-12T15:46:06.639Z,22.77
2022-08-12T15:48:34.282Z,23.25
2022-08-12T15:51:02.976Z,23.57
2022-08-12T15:53:53.209Z,23.20
2022-08-12T15:56:29.522Z,23.24
2022-08-12T15:59:00.828Z,23.33
2022-08-12T16:01:35.365Z,23.41
2022-08-12T16:04:05.416Z,23.22
2022-08-12T16:09:56.252Z,23.59
2022-08-12T16:12:12.009Z,23.47
2022-08-12T16:14:39.670Z,23.72
2022-08-12T16:17:08.739Z,23.61
2022-08-12T16:20:04.036Z,23.25
2022-08-12T16:22:26.588Z,24.09
2022-08-12T16:24:54.181Z,23.60
2022-08-12T16:27:25.472Z,23.88
2022-08-12T16:29:57.707Z,23.25
2022-08-12T16:32:31.277Z,24.31
2022-08-12T16:35:01.418Z,23.77
2022-08-12T16:38:15.522Z,23.00
2022-08-12T16:40:18.863Z,23.41
2022-08-12T16:42:54.394Z,24.00
2022-08-12T16:46:05.286Z,24.04
2022-08-12T16:48:35.762Z,23.89
2022-08-12T16:51:12.763Z,24.24
2022-08-12T16:53:43.776Z,23.74
2022-08-12T16:56:17.303Z,23.75
2022-08-12T16:58:47.351Z,24.11
2022-08-12T17:01:16.407Z,23.53
2022-08-12T17:04:08.615Z,23.77
2022-08-12T17:06:43.369Z,23.98
2022-08-12T17:09:17.907Z,24.57
2022-08-12T17:11:49.746Z,24.53
2022-08-12T17:14:23.190Z,24.73
2022-08-12T17:16:54.738Z,24.03
2022-08-12T17:20:02.578Z,24.26
2022-08-12T17:22:12.591Z,24.37
2022-08-12T17:24:54.415Z,25.00
2022-08-12T17:27:24.199Z,24.88
2022-08-12T17:30:03.130Z,24.94
2022-08-12T17:32:35.100Z,25.24
2022-08-12T17:35:21.174Z,24.98
2022-08-12T17:37:54.801Z,24.91
2022-08-12T17:40:34.953Z,25.66
2022-08-12T17:43:52.259Z,26.58
2022-08-12T17:45:59.018Z,27.33
2022-08-12T17:48:34.217Z,28.09
2022-08-12T17:51:15.351Z,27.08
2022-08-12T17:54:11.615Z,27.35
2022-08-12T17:56:37.254Z,27.67
2022-08-12T17:59:07.355Z,27.90
2022-08-12T18:01:36.574Z,28.30
2022-08-12T18:04:22.455Z,28.63
2022-08-12T18:06:52.978Z,28.64
2022-08-12T18:09:24.630Z,28.64
2022-08-12T18:12:24.269Z,29.00
2022-08-12T18:15:08.710Z,29.56
2022-08-12T18:17:39.079Z,28.96
2022-08-12T18:20:08.457Z,28.71
2022-08-12T18:22:44.374Z,28.90
2022-08-12T18:26:14.281Z,29.18
2022-08-12T18:28:29.232Z,29.57
2022-08-12T18:31:03.033Z,29.79
2022-08-12T18:33:41.550Z,29.63
2022-08-12T18:36:13.074Z,29.95
2022-08-12T18:38:44.727Z,30.65
2022-08-12T18:41:33.592Z,30.13
2022-08-12T18:44:09.379Z,30.10
2022-08-12T18:46:54.389Z,30.80
2022-08-12T18:49:31.570Z,30.68
2022-08-12T18:52:04.179Z,30.53
2022-08-12T18:54:49.515Z,31.01
2022-08-12T18:58:06.943Z,30.49
2022-08-12T19:00:21.369Z,31.43
2022-08-12T19:02:53.387Z,31.07
2022-08-12T19:05:53.083Z,30.91
2022-08-12T19:08:13.669Z,31.30
2022-08-12T19:10:50.556Z,31.48
2022-08-12T19:13:39.612Z,31.77
2022-08-12T19:16:12.506Z,31.04
2022-08-12T19:18:40.947Z,31.79
2022-08-12T19:21:16.247Z,31.73
2022-08-12T19:24:04.796Z,32.29
2022-08-12T19:26:35.344Z,31.86
2022-08-12T19:29:05.207Z,32.37
2022-08-12T19:31:58.372Z,32.23
2022-08-12T19:35:32.948Z,32.48
2022-08-12T19:38:03.531Z,32.34
2022-08-12T19:40:31.537Z,32.46
2022-08-12T19:43:21.769Z,31.98
2022-08-12T19:45:56.253Z,32.95
2022-08-12T19:48:32.637Z,32.67
2022-08-12T19:51:08.866Z,33.20
2022-08-12T19:53:56.654Z,33.66
2022-08-12T19:56:25.154Z,33.36
2022-08-12T19:58:53.889Z,34.15
2022-08-12T20:01:21.776Z,34.06
2022-08-12T20:03:59.081Z,34.40
2022-08-12T20:06:33.951Z,34.53
2022-08-12T20:09:01.607Z,34.09
2022-08-12T20:12:14.234Z,34.62
2022-08-12T20:14:19.329Z,35.18
2022-08-12T20:16:57.211Z,34.59
2022-08-12T20:20:16.437Z,35.15
2022-08-12T20:22:23.948Z,35.05
2022-08-12T20:25:10.293Z,34.26
2022-08-12T20:28:04.826Z,33.89
2022-08-12T20:30:37.727Z,33.77
2022-08-12T20:33:22.998Z,34.09
2022-08-12T20:36:13.574Z,34.86
2022-08-12T20:38:39.528Z,34.83
2022-08-12T20:41:17.872Z,34.45
2022-08-12T20:43:52.787Z,35.45
2022-08-12T20:46:21.558Z,36.19
2022-08-12T20:48:54.303Z,36.78
2022-08-12T20:51:22.506Z,37.01
2022-08-12T20:53:57.881Z,36.54
2022-08-12T20:56:35.424Z,36.79
2022-08-12T20:59:10.478Z,37.10
2022-08-12T21:01:47.426Z,36.45
2022-08-12T21:04:36.748Z,36.39
2022-08-12T21:07:09.176Z,37.48
2022-08-12T21:09:47.665Z,37.74
2022-08-12T21:12:27.718Z,36.98
2022-08-12T21:15:23.489Z,37.52
2022-08-12T21:18:10.787Z,37.31
2022-08-12T21:20:54.258Z,39.15
2022-08-12T21:23:23.118Z,38.50
2022-08-12T21:26:01.139Z,38.99
2022-08-12T21:28:31.853Z,37.73
2022-08-12T21:32:37.509Z,38.76
2022-08-12T21:34:07.016Z,39.21
2022-08-12T21:36:48.518Z,40.18
2022-08-12T21:39:24.748Z,40.78
2022-08-12T21:42:00.406Z,41.17
2022-08-12T21:45:46.021Z,40.72
2022-08-12T21:47:22.295Z,39.68
2022-08-12T21:50:02.958Z,39.61
2022-08-12T21:52:40.940Z,41.83
2022-08-12T21:55:18.163Z,40.72
2022-08-12T21:57:54.831Z,41.12
2022-08-12T22:00:34.409Z,42.99
2022-08-12T22:04:02.779Z,40.75
2022-08-12T22:06:31.351Z,41.67
2022-08-12T22:09:15.730Z,42.63
2022-08-12T22:11:49.306Z,40.93
2022-08-12T22:14:29.735Z,41.16
2022-08-12T22:16:58.441Z,40.94
2022-08-12T22:19:26.907Z,40.80
2022-08-12T22:21:55.807Z,40.93
2022-08-12T22:24:26.717Z,40.42
2022-08-12T22:27:11.900Z,41.83
2022-08-12T22:30:08.790Z,41.40
2022-08-12T22:32:49.787Z,41.42
2022-08-12T22:35:55.396Z,41.99
2022-08-12T22:38:26.366Z,43.90
2022-08-12T22:41:01.077Z,44.21
2022-08-12T22:44:00.577Z,43.13
2022-08-12T22:46:51.916Z,42.77
2022-08-12T22:49:49.000Z,43.08
2022-08-12T22:52:22.664Z,43.16
2022-08-12T22:55:02.703Z,42.68
2022-08-12T22:57:49.059Z,44.63
2022-08-12T23:00:23.855Z,42.36
2022-08-12T23:02:56.948Z,42.44
2022-08-12T23:05:57.354Z,44.50
2022-08-12T23:08:22.948Z,44.36
2022-08-12T23:10:51.134Z,43.71
2022-08-12T23:13:44.106Z,43.85
2022-08-12T23:16:18.275Z,45.85
2022-08-12T23:19:01.594Z,45.75
2022-08-12T23:22:05.925Z,44.96
2022-08-12T23:24:56.605Z,46.27
2022-08-12T23:27:51.969Z,51.33
2022-08-12T23:30:31.664Z,45.83
2022-08-12T23:33:13.597Z,45.19
2022-08-12T23:36:02.643Z,46.81
2022-08-12T23:38:33.060Z,44.75
2022-08-12T23:41:03.343Z,47.55
2022-08-12T23:43:40.785Z,49.54
2022-08-12T23:46:19.066Z,47.66
2022-08-12T23:48:50.562Z,46.32
2022-08-12T23:51:25.217Z,48.77
2022-08-12T23:54:00.273Z,46.41
2022-08-12T23:56:32.890Z,48.48
2022-08-12T23:59:09.501Z,50.52
